Aérodrome :
LOGIN :

S'inscrire | Disclaimer

   EN    FR    IT 

 










Légende :    VFR   VFR Marginal   IFR   IFR Intensif   IFR Très Intensif
Visi : 
Plafond : 
>= 8 km
>= 3000ft
5 à 8 km
1000 à 3000 ft
1500m à 5 km
500 à 1000 ft
800 à 1500m
200 à 500 ft
< 800m
< 200 ft
Symboles :   Orages  Brouillard  Fortes neiges  Fortes précipitations  Vent > 20 kt
SIGMETs :   Divers  Orages  Givrage  Turbulence  Onde Orograph.  Cendres Volcan.






- Altitude de l'aérodrome : 796 ft
- Code IATA : SYT


LFLN - Saint-Yan

DERNIER METAR :
  • 291700Z AUTO 03009KT 010V070 CAVOK 23/05 Q1018 NOSIG

METARs EXPIRÉS :
  • 291630Z AUTO 04010KT 360V070 CAVOK 24/05 Q1018 NOSIG
  • 291600Z AUTO 04011KT CAVOK 24/05 Q1018 NOSIG
  • 291530Z AUTO 03014KT CAVOK 24/04 Q1018 NOSIG
  • 291500Z AUTO 02013KT CAVOK 24/04 Q1018 NOSIG
  • 291430Z AUTO 04012KT 360V060 CAVOK 24/05 Q1018 NOSIG

TAF TAF LFLN
Valide du 29 à 15h jusqu'au 30 à 00h UTC


291400Z 2915/2924 02010KT CAVOK
BECMG 2921/2924 VRB03KT



MET'MAP, la Météo Aéronautique d'un coup d'oeil ! - Copyright ORBIFLY Décembre 2007 - Disclaimer

ORBIFLY MET'MAP TEAM :

Programmation & Développement : Alexandra Zaïnal
Sur une idée originale de : Baudouin d'Aumeries
Assistance à la programmation : Marc-Olivier Méhu
Soutien technique & logistique : Manuel Goepfert

Contact : metmap@orbifly.com




SOURCES & CREDITS :

   NOAA